METAR Data
IDs: Format: Raw Decoded Include TAF

Data at: 0845 UTC 20 Sep 2018

KSRQ 200753Z 10003KT 10SM CLR 24/23 A2996 RMK AO2 SLP143 T02390233
KSRQ 200653Z 05004KT 10SM CLR 24/23 A2996 RMK AO2 SLP143 T02440228
KSRQ 200553Z 00000KT 10SM CLR 24/23 A2997 RMK AO2 SLP147 T02440233 10272 20244 50002
KSRQ 200453Z 09003KT 10SM BKN080 24/23 A2998 RMK AO2 SLP153 T02440233 403220244
KSRQ 200353Z 08005KT 10SM CLR 25/23 A2998 RMK AO2 SLP152 T02500233
KSRQ 200253Z 00000KT 10SM CLR 25/23 A2996 RMK AO2 SLP145 T02500228 51009
KSRQ 200153Z 00000KT 10SM FEW060 25/23 A2996 RMK AO2 SLP143 T02500228
KSRQ 200053Z 11005KT 10SM BKN085 BKN110 26/24 A2996 RMK AO2 LTG DSNT NE SLP143 T02610239
KSRQ 192353Z 08006KT 10SM FEW060 27/23 A2993 RMK AO2 LTG DSNT NE AND E TSE2257 SLP136 T02720233 10322 20267 53010
KSRQ 192337Z 00000KT 10SM FEW095 27/23 A2992 RMK AO2 LTG DSNT NE AND E TSE2257 T02720228
KSRQ 192322Z 12005KT 10SM VCTS FEW030 FEW035 SCT095 28/23 A2993 RMK AO2 LTG DSNT NE AND E TSE2257 T02780228
KSRQ 192311Z 10005KT 10SM FEW033 SCT060 28/22 A2992 RMK AO2 LTG DSNT NE AND E TSE2257 T02780222
KSRQ 192303Z 10007KT 10SM VCTS SCT032 BKN065 27/21 A2992 RMK AO2 LTG DSNT NE AND E TSE2257 T02720211
KSRQ 192253Z 10011KT 10SM TS SCT032 BKN065 28/21 A2991 RMK AO2 LTG DSNT NE AND E TSB34 SLP129 T02780206
KSRQ 192240Z 32004KT 10SM TS BKN070 31/24 A2991 RMK AO2 LTG DSNT NE AND E TSB34 T03060244
KSRQ 192153Z 28008KT 10SM VCTS CLR 31/25 A2990 RMK AO2 LTG DSNT NE-SE SLP125 T03110250
KSRQ 192126Z 27008KT 10SM VCTS CLR 32/25 A2990 RMK AO2 LTG DSNT NE-SE T03170250
KSRQ 192053Z 27010KT 10SM CLR 32/26 A2990 RMK AO2 LTG DSNT E SLP125 T03170256 55017
KSRQ 191953Z 26008KT 10SM CLR 32/25 A2990 RMK AO2 LTG DSNT SE SLP125 T03170250
KSRQ 191853Z 25008KT 10SM CLR 32/26 A2993 RMK AO2 LTG DSNT SE TSB20E39 SLP133 T03170256
KSRQ 191845Z 24007KT 10SM VCTS FEW065 31/26 A2993 RMK AO2 LTG DSNT SE TSB20E39 T03110256
KSRQ 191826Z 25007KT 220V290 10SM TS SCT065 SCT080 32/26 A2994 RMK AO2 TSB20 T03170261
KSRQ 191753Z 32007KT 10SM SCT024TCU 32/25 A2995 RMK AO2 LTG DSNT N TSB29E44 SLP142 T03220250 10322 20256 56008
KSRQ 191750Z 01006KT 10SM SCT024TCU 32/25 A2996 RMK AO2 LTG DSNT N TSB29E44
KSRQ 191735Z 24006KT 10SM TS SCT024TCU 31/26 A2996 RMK AO2 LTG DSNT N TSB29 T03110256
KSRQ 191653Z COR 25008KT 10SM SCT024TCU 31/26 A2996 RMK AO2 TCU N-SE SLP146 T03110261
KSRQ 191553Z COR 25007KT 10SM SCT018 31/26 A2998 RMK AO2 TCU N-SE SLP150 T03060261
KSRQ 191453Z 23007KT 10SM SCT013 30/26 A2998 RMK AO2 SLP149 T03000261 51007
KSRQ 191451Z 23006KT 10SM SCT013 30/26 A2997 RMK AO2
KSRQ 191440Z 22006KT 10SM BKN019 29/26 A2997 RMK AO2 T02890256
KSRQ 191353Z 00000KT 10SM CLR 29/26 A2996 RMK AO2 SLP145 T02890256
KSRQ 191253Z 13004KT 10SM CLR 27/25 A2995 RMK AO2 SLP142 T02720250
KSRQ 191153Z 09004KT 10SM FEW065 SCT080 26/24 A2994 RMK AO2 SLP136 70007 T02560244 10261 20250 51013
KSRQ 191053Z 08003KT 10SM SCT065 25/24 A2993 RMK AO2 SLP134 T02500244
KSRQ 190953Z AUTO 07004KT 10SM CLR 25/24 A2991 RMK AO2 SLP127 T02500244
KSRQ 190853Z AUTO 08003KT 10SM FEW110 26/24 A2990 RMK AO2 SLP124 T02560244 56008
KSRQ 190753Z AUTO 03003KT 10SM OVC100 26/25 A2990 RMK AO2 SLP125 T02560250
KSRQ 190653Z AUTO 07003KT 10SM BKN100 26/24 A2991 RMK AO2 SLP127 T02560244
KSRQ 190553Z AUTO 08003KT 10SM CLR 26/24 A2992 RMK AO2 SLP132 T02610239 10283 20261 58005
KSRQ 190453Z AUTO 10006KT 10SM SCT029 27/25 A2995 RMK AO2 LTG DSNT SW SLP139 T02670250 403220250
KSRQ 190408Z AUTO 10003KT 10SM SCT027 SCT033 27/26 A2994 RMK AO2 LTG DSNT E-SW T02670256
KSRQ 190353Z AUTO 09005KT 10SM BKN027 BKN033 27/26 A2994 RMK AO2 LTG DSNT E-SW SLP136 T02670256
KSRQ 190348Z AUTO 09005KT 10SM BKN025 27/26 A2994 RMK AO2 LTG DSNT E-SW
KSRQ 190253Z 02004KT 10SM FEW060 28/25 A2993 RMK AO2 LTG DSNT NE SLP136 T02780250 51017
KSRQ 190153Z 00000KT 10SM CLR 28/25 A2993 RMK AO2 SLP133 T02830250
KSRQ 190053Z 32004KT 10SM CLR 28/25 A2991 RMK AO2 SLP126 T02780250
KSRQ 182353Z 00000KT 10SM CLR 28/25 A2988 RMK AO2 SLP119 60007 T02830250 10322 20278 55000
KSRQ 182253Z 00000KT 10SM CLR 29/23 A2988 RMK AO2 RAE2154 SLP117 P0000 T02940228
KSRQ 182153Z 35004KT 10SM -RA FEW039 SCT065 BKN085 28/24 A2988 RMK AO2 RAB32 TSE32 SLP118 P0007 T02830244
KSRQ 182151Z 36004KT 10SM -RA FEW039 BKN085 OVC100 28/24 A2988 RMK AO2 RAB32 TSE32 P0007
KSRQ 182137Z 00000KT 2 1/2SM +RA FEW031 BKN070 OVC110 28/23 A2989 RMK AO2 RAB32 TSE32 P0006 T02830233
KSRQ 182053Z 31008KT 10SM TS CLR 32/26 A2989 RMK AO2 LTG DSNT NE TSB22 SLP121 T03220256 56017